sensor_id;sensor_type;location;lat;lon;timestamp;pressure;altitude;pressure_sealevel;temperature
20490;BMP280;10403;54.092;12.122;2023-11-18T00:00:06;102450.22;;;7.52
20490;BMP280;10403;54.092;12.122;2023-11-18T00:02:39;102475.66;;;7.62
20490;BMP280;10403;54.092;12.122;2023-11-18T00:05:07;102487.25;;;7.73
20490;BMP280;10403;54.092;12.122;2023-11-18T00:07:35;102457.38;;;7.61
20490;BMP280;10403;54.092;12.122;2023-11-18T00:10:03;102461.69;;;7.60
20490;BMP280;10403;54.092;12.122;2023-11-18T00:12:32;102444.13;;;7.52
20490;BMP280;10403;54.092;12.122;2023-11-18T00:15:04;102453.66;;;7.51
20490;BMP280;10403;54.092;12.122;2023-11-18T00:17:31;102453.63;;;7.50
20490;BMP280;10403;54.092;12.122;2023-11-18T00:19:59;102474.69;;;7.59
20490;BMP280;10403;54.092;12.122;2023-11-18T00:22:27;102449.97;;;7.43
20490;BMP280;10403;54.092;12.122;2023-11-18T00:24:55;102451.66;;;7.41
20490;BMP280;10403;54.092;12.122;2023-11-18T00:27:22;102457.63;;;7.37
20490;BMP280;10403;54.092;12.122;2023-11-18T00:29:49;102483.88;;;7.46
20490;BMP280;10403;54.092;12.122;2023-11-18T00:32:17;102457.47;;;7.31
20490;BMP280;10403;54.092;12.122;2023-11-18T00:34:44;102441.59;;;7.22
20490;BMP280;10403;54.092;12.122;2023-11-18T00:37:12;102454.66;;;7.23
20490;BMP280;10403;54.092;12.122;2023-11-18T00:39:39;102491.50;;;7.38
20490;BMP280;10403;54.092;12.122;2023-11-18T00:42:07;102489.78;;;7.39
20490;BMP280;10403;54.092;12.122;2023-11-18T00:44:35;102500.34;;;7.43
20490;BMP280;10403;54.092;12.122;2023-11-18T00:47:02;102500.44;;;7.48
20490;BMP280;10403;54.092;12.122;2023-11-18T00:49:30;102497.69;;;7.42
20490;BMP280;10403;54.092;12.122;2023-11-18T00:51:57;102513.38;;;7.45
20490;BMP280;10403;54.092;12.122;2023-11-18T00:54:25;102490.38;;;7.29
20490;BMP280;10403;54.092;12.122;2023-11-18T00:56:53;102523.09;;;7.51
20490;BMP280;10403;54.092;12.122;2023-11-18T00:59:21;102513.31;;;7.42
20490;BMP280;10403;54.092;12.122;2023-11-18T01:01:48;102532.72;;;7.53
20490;BMP280;10403;54.092;12.122;2023-11-18T01:04:16;102530.19;;;7.56
20490;BMP280;10403;54.092;12.122;2023-11-18T01:06:43;102533.66;;;7.57
20490;BMP280;10403;54.092;12.122;2023-11-18T01:09:10;102528.53;;;7.60
20490;BMP280;10403;54.092;12.122;2023-11-18T01:11:39;102528.44;;;7.57
20490;BMP280;10403;54.092;12.122;2023-11-18T01:14:26;102531.19;;;7.61
20490;BMP280;10403;54.092;12.122;2023-11-18T01:16:53;102528.59;;;7.61
20490;BMP280;10403;54.092;12.122;2023-11-18T01:19:20;102535.63;;;7.65
20490;BMP280;10403;54.092;12.122;2023-11-18T01:21:48;102515.44;;;7.57
20490;BMP280;10403;54.092;12.122;2023-11-18T01:24:15;102518.91;;;7.57
20490;BMP280;10403;54.092;12.122;2023-11-18T01:26:43;102540.94;;;7.68
20490;BMP280;10403;54.092;12.122;2023-11-18T01:29:12;102553.25;;;7.75
20490;BMP280;10403;54.092;12.122;2023-11-18T01:31:40;102537.44;;;7.68
20490;BMP280;10403;54.092;12.122;2023-11-18T01:34:19;102542.75;;;7.71
20490;BMP280;10403;54.092;12.122;2023-11-18T01:36:50;102549.72;;;7.72
20490;BMP280;10403;54.092;12.122;2023-11-18T01:39:18;102552.28;;;7.70
20490;BMP280;10403;54.092;12.122;2023-11-18T01:41:46;102561.84;;;7.71
20490;BMP280;10403;54.092;12.122;2023-11-18T01:44:14;102550.41;;;7.66
20490;BMP280;10403;54.092;12.122;2023-11-18T01:46:42;102581.19;;;7.79
20490;BMP280;10403;54.092;12.122;2023-11-18T01:49:13;102531.78;;;7.51
20490;BMP280;10403;54.092;12.122;2023-11-18T01:51:46;102555.59;;;7.65
20490;BMP280;10403;54.092;12.122;2023-11-18T01:54:15;102560.06;;;7.69
20490;BMP280;10403;54.092;12.122;2023-11-18T01:56:50;102557.50;;;7.70
20490;BMP280;10403;54.092;12.122;2023-11-18T01:59:19;102568.00;;;7.73
20490;BMP280;10403;54.092;12.122;2023-11-18T02:01:51;102560.97;;;7.71
20490;BMP280;10403;54.092;12.122;2023-11-18T02:04:21;102551.25;;;7.64
20490;BMP280;10403;54.092;12.122;2023-11-18T02:06:49;102540.69;;;7.59
20490;BMP280;10403;54.092;12.122;2023-11-18T02:09:19;102586.44;;;7.81
20490;BMP280;10403;54.092;12.122;2023-11-18T02:12:17;102576.91;;;7.82
20490;BMP280;10403;54.092;12.122;2023-11-18T02:14:49;102576.72;;;7.75
20490;BMP280;10403;54.092;12.122;2023-11-18T02:17:21;102567.91;;;7.70
20490;BMP280;10403;54.092;12.122;2023-11-18T02:19:57;102576.66;;;7.74
20490;BMP280;10403;54.092;12.122;2023-11-18T02:22:26;102582.03;;;7.78
20490;BMP280;10403;54.092;12.122;2023-11-18T02:24:53;102563.50;;;7.68
20490;BMP280;10403;54.092;12.122;2023-11-18T02:27:22;102574.06;;;7.72
20490;BMP280;10403;54.092;12.122;2023-11-18T02:29:51;102554.59;;;7.60
20490;BMP280;10403;54.092;12.122;2023-11-18T02:32:27;102561.53;;;7.59
20490;BMP280;10403;54.092;12.122;2023-11-18T02:35:14;102559.06;;;7.65
20490;BMP280;10403;54.092;12.122;2023-11-18T02:37:47;102566.13;;;7.69
20490;BMP280;10403;54.092;12.122;2023-11-18T02:40:33;102590.75;;;7.80
20490;BMP280;10403;54.092;12.122;2023-11-18T02:43:05;102580.16;;;7.74
20490;BMP280;10403;54.092;12.122;2023-11-18T02:45:35;102565.41;;;7.73
20490;BMP280;10403;54.092;12.122;2023-11-18T02:48:06;102565.47;;;7.76
20490;BMP280;10403;54.092;12.122;2023-11-18T02:50:34;102546.88;;;7.64
20490;BMP280;10403;54.092;12.122;2023-11-18T02:53:05;102557.59;;;7.73
20490;BMP280;10403;54.092;12.122;2023-11-18T02:55:32;102553.31;;;7.77
20490;BMP280;10403;54.092;12.122;2023-11-18T02:57:59;102523.25;;;7.57
20490;BMP280;10403;54.092;12.122;2023-11-18T03:00:30;102568.31;;;7.86
20490;BMP280;10403;54.092;12.122;2023-11-18T03:02:58;102556.66;;;7.71
20490;BMP280;10403;54.092;12.122;2023-11-18T03:05:26;102530.31;;;7.61
20490;BMP280;10403;54.092;12.122;2023-11-18T03:07:53;102568.25;;;7.83
20490;BMP280;10403;54.092;12.122;2023-11-18T03:10:24;102542.66;;;7.68
20490;BMP280;10403;54.092;12.122;2023-11-18T03:12:53;102552.28;;;7.70
20490;BMP280;10403;54.092;12.122;2023-11-18T03:15:22;102546.03;;;7.65
20490;BMP280;10403;54.092;12.122;2023-11-18T03:17:51;102554.03;;;7.71
20490;BMP280;10403;54.092;12.122;2023-11-18T03:20:22;102545.16;;;7.63
20490;BMP280;10403;54.092;12.122;2023-11-18T03:22:51;102541.72;;;7.66
20490;BMP280;10403;54.092;12.122;2023-11-18T03:25:19;102545.06;;;7.60
20490;BMP280;10403;54.092;12.122;2023-11-18T03:27:49;102523.03;;;7.49
20490;BMP280;10403;54.092;12.122;2023-11-18T03:30:16;102540.63;;;7.58
20490;BMP280;10403;54.092;12.122;2023-11-18T03:32:44;102512.28;;;7.37
20490;BMP280;10403;54.092;12.122;2023-11-18T03:35:12;102543.16;;;7.55
20490;BMP280;10403;54.092;12.122;2023-11-18T03:37:41;102555.47;;;7.60
20490;BMP280;10403;54.092;12.122;2023-11-18T03:40:13;102542.94;;;7.47
20490;BMP280;10403;54.092;12.122;2023-11-18T03:42:42;102536.69;;;7.40
20490;BMP280;10403;54.092;12.122;2023-11-18T03:45:10;102550.56;;;7.39
20490;BMP280;10403;54.092;12.122;2023-11-18T03:47:38;102545.97;;;7.31
20490;BMP280;10403;54.092;12.122;2023-11-18T03:50:06;102565.28;;;7.39
20490;BMP280;10403;54.092;12.122;2023-11-18T03:52:36;102536.97;;;7.20
20490;BMP280;10403;54.092;12.122;2023-11-18T03:55:05;102558.16;;;7.32
20490;BMP280;10403;54.092;12.122;2023-11-18T03:57:33;102560.75;;;7.32
20490;BMP280;10403;54.092;12.122;2023-11-18T04:00:01;102549.25;;;7.24
20490;BMP280;10403;54.092;12.122;2023-11-18T04:02:29;102548.31;;;7.22
20490;BMP280;10403;54.092;12.122;2023-11-18T04:04:57;102536.88;;;7.17
20490;BMP280;10403;54.092;12.122;2023-11-18T04:07:24;102570.34;;;7.33
20490;BMP280;10403;54.092;12.122;2023-11-18T04:09:51;102553.75;;;7.29
20490;BMP280;10403;54.092;12.122;2023-11-18T04:12:19;102569.50;;;7.34
20490;BMP280;10403;54.092;12.122;2023-11-18T04:14:46;102536.03;;;7.18
20490;BMP280;10403;54.092;12.122;2023-11-18T04:17:13;102537.91;;;7.22
20490;BMP280;10403;54.092;12.122;2023-11-18T04:19:41;102571.28;;;7.36
20490;BMP280;10403;54.092;12.122;2023-11-18T04:22:08;102575.63;;;7.36
20490;BMP280;10403;54.092;12.122;2023-11-18T04:24:36;102579.06;;;7.35
20490;BMP280;10403;54.092;12.122;2023-11-18T04:27:03;102571.13;;;7.30
20490;BMP280;10403;54.092;12.122;2023-11-18T04:29:30;102544.53;;;7.11
20490;BMP280;10403;54.092;12.122;2023-11-18T04:31:57;102576.38;;;7.32
20490;BMP280;10403;54.092;12.122;2023-11-18T04:34:27;102594.88;;;7.41
20490;BMP280;10403;54.092;12.122;2023-11-18T04:36:54;102576.19;;;7.26
20490;BMP280;10403;54.092;12.122;2023-11-18T04:39:22;102595.56;;;7.35
20490;BMP280;10403;54.092;12.122;2023-11-18T04:41:49;102597.28;;;7.35
20490;BMP280;10403;54.092;12.122;2023-11-18T04:44:17;102537.44;;;7.05
20490;BMP280;10403;54.092;12.122;2023-11-18T04:46:44;102563.16;;;7.24
20490;BMP280;10403;54.092;12.122;2023-11-18T04:49:12;102598.41;;;7.43
20490;BMP280;10403;54.092;12.122;2023-11-18T04:51:39;102593.25;;;7.46
20490;BMP280;10403;54.092;12.122;2023-11-18T04:54:07;102590.66;;;7.46
20490;BMP280;10403;54.092;12.122;2023-11-18T04:56:38;102559.84;;;7.30
20490;BMP280;10403;54.092;12.122;2023-11-18T04:59:05;102555.47;;;7.29
20490;BMP280;10403;54.092;12.122;2023-11-18T05:01:33;102572.22;;;7.38
20490;BMP280;10403;54.092;12.122;2023-11-18T05:04:00;102572.28;;;7.40
20490;BMP280;10403;54.092;12.122;2023-11-18T05:06:28;102567.84;;;7.37
20490;BMP280;10403;54.092;12.122;2023-11-18T05:08:55;102585.41;;;7.44
20490;BMP280;10403;54.092;12.122;2023-11-18T05:11:23;102577.53;;;7.41
20490;BMP280;10403;54.092;12.122;2023-11-18T05:13:50;102561.59;;;7.31
20490;BMP280;10403;54.092;12.122;2023-11-18T05:16:17;102556.41;;;7.31
20490;BMP280;10403;54.092;12.122;2023-11-18T05:18:45;102581.91;;;7.42
20490;BMP280;10403;54.092;12.122;2023-11-18T05:21:12;102562.50;;;7.31
20490;BMP280;10403;54.092;12.122;2023-11-18T05:23:40;102550.97;;;7.23
20490;BMP280;10403;54.092;12.122;2023-11-18T05:26:07;102558.06;;;7.29
20490;BMP280;10403;54.092;12.122;2023-11-18T05:28:36;102601.22;;;7.51
20490;BMP280;10403;54.092;12.122;2023-11-18T05:31:03;102576.50;;;7.36
20490;BMP280;10403;54.092;12.122;2023-11-18T05:33:32;102589.75;;;7.44
20490;BMP280;10403;54.092;12.122;2023-11-18T05:36:02;102581.91;;;7.42
20490;BMP280;10403;54.092;12.122;2023-11-18T05:38:32;102605.66;;;7.53
20490;BMP280;10403;54.092;12.122;2023-11-18T05:41:02;102573.00;;;7.36
20490;BMP280;10403;54.092;12.122;2023-11-18T05:43:33;102596.97;;;7.54
20490;BMP280;10403;54.092;12.122;2023-11-18T05:46:05;102556.19;;;7.25
20490;BMP280;10403;54.092;12.122;2023-11-18T05:48:48;102572.28;;;7.40
20490;BMP280;10403;54.092;12.122;2023-11-18T05:51:26;102582.78;;;7.43
20490;BMP280;10403;54.092;12.122;2023-11-18T05:53:54;102595.22;;;7.53
20490;BMP280;10403;54.092;12.122;2023-11-18T05:56:22;102584.66;;;7.49
20490;BMP280;10403;54.092;12.122;2023-11-18T05:58:51;102574.84;;;7.38
20490;BMP280;10403;54.092;12.122;2023-11-18T06:01:21;102568.56;;;7.32
20490;BMP280;10403;54.092;12.122;2023-11-18T06:03:49;102590.63;;;7.44
20490;BMP280;10403;54.092;12.122;2023-11-18T06:06:17;102580.91;;;7.39
20490;BMP280;10403;54.092;12.122;2023-11-18T06:08:50;102606.53;;;7.54
20490;BMP280;10403;54.092;12.122;2023-11-18T06:11:19;102601.06;;;7.46
20490;BMP280;10403;54.092;12.122;2023-11-18T06:13:49;102583.56;;;7.40
20490;BMP280;10403;54.092;12.122;2023-11-18T06:16:20;102580.97;;;7.40
20490;BMP280;10403;54.092;12.122;2023-11-18T06:18:51;102594.25;;;7.50
20490;BMP280;10403;54.092;12.122;2023-11-18T06:21:24;102606.53;;;7.54
20490;BMP280;10403;54.092;12.122;2023-11-18T06:23:52;102587.91;;;7.40
20490;BMP280;10403;54.092;12.122;2023-11-18T06:26:23;102579.25;;;7.41
20490;BMP280;10403;54.092;12.122;2023-11-18T06:28:55;102572.81;;;7.28
20490;BMP280;10403;54.092;12.122;2023-11-18T06:31:24;102576.34;;;7.30
20490;BMP280;10403;54.092;12.122;2023-11-18T06:33:52;102586.66;;;7.27
20490;BMP280;10403;54.092;12.122;2023-11-18T06:36:21;102612.97;;;7.36
20490;BMP280;10403;54.092;12.122;2023-11-18T06:38:51;102617.38;;;7.39
20490;BMP280;10403;54.092;12.122;2023-11-18T06:41:21;102593.50;;;7.24
20490;BMP280;10403;54.092;12.122;2023-11-18T06:44:01;102589.94;;;7.20
20490;BMP280;10403;54.092;12.122;2023-11-18T06:46:36;102584.41;;;7.10
20490;BMP280;10403;54.092;12.122;2023-11-18T06:49:08;102596.91;;;7.21
20490;BMP280;10403;54.092;12.122;2023-11-18T06:51:38;102617.22;;;7.33
20490;BMP280;10403;54.092;12.122;2023-11-18T06:54:05;102611.03;;;7.29
20490;BMP280;10403;54.092;12.122;2023-11-18T06:56:39;102626.03;;;7.38
20490;BMP280;10403;54.092;12.122;2023-11-18T06:59:13;102634.78;;;7.40
20490;BMP280;10403;54.092;12.122;2023-11-18T07:01:43;102594.25;;;7.20
20490;BMP280;10403;54.092;12.122;2023-11-18T07:04:13;102582.69;;;7.10
20490;BMP280;10403;54.092;12.122;2023-11-18T07:06:44;102625.09;;;7.36
20490;BMP280;10403;54.092;12.122;2023-11-18T07:09:12;102590.66;;;7.16
20490;BMP280;10403;54.092;12.122;2023-11-18T07:11:49;102605.59;;;7.22
20490;BMP280;10403;54.092;12.122;2023-11-18T07:14:18;102621.53;;;7.32
20490;BMP280;10403;54.092;12.122;2023-11-18T07:16:46;102651.50;;;7.48
20490;BMP280;10403;54.092;12.122;2023-11-18T07:19:13;102637.50;;;7.44
20490;BMP280;10403;54.092;12.122;2023-11-18T07:21:50;102633.88;;;7.39
20490;BMP280;10403;54.092;12.122;2023-11-18T07:24:18;102659.53;;;7.56
20490;BMP280;10403;54.092;12.122;2023-11-18T07:26:47;102628.53;;;7.35
20490;BMP280;10403;54.092;12.122;2023-11-18T07:29:16;102642.53;;;7.38
20490;BMP280;10403;54.092;12.122;2023-11-18T07:31:44;102646.97;;;7.41
20490;BMP280;10403;54.092;12.122;2023-11-18T07:34:13;102666.97;;;7.42
20490;BMP280;10403;54.092;12.122;2023-11-18T07:36:40;102674.94;;;7.48
20490;BMP280;10403;54.092;12.122;2023-11-18T07:39:07;102673.25;;;7.50
20490;BMP280;10403;54.092;12.122;2023-11-18T07:41:43;102694.41;;;7.61
20490;BMP280;10403;54.092;12.122;2023-11-18T07:44:11;102632.84;;;7.33
20490;BMP280;10403;54.092;12.122;2023-11-18T07:46:40;102690.09;;;7.61
20490;BMP280;10403;54.092;12.122;2023-11-18T07:49:10;102686.50;;;7.58
20490;BMP280;10403;54.092;12.122;2023-11-18T07:51:38;102676.97;;;7.58
20490;BMP280;10403;54.092;12.122;2023-11-18T07:54:07;102665.41;;;7.49
20490;BMP280;10403;54.092;12.122;2023-11-18T07:56:37;102652.28;;;7.44
20490;BMP280;10403;54.092;12.122;2023-11-18T07:59:05;102648.72;;;7.42
20490;BMP280;10403;54.092;12.122;2023-11-18T08:01:35;102654.88;;;7.44
20490;BMP280;10403;54.092;12.122;2023-11-18T08:04:03;102642.63;;;7.41
20490;BMP280;10403;54.092;12.122;2023-11-18T08:06:34;102654.19;;;7.51
20490;BMP280;10403;54.092;12.122;2023-11-18T08:09:01;102677.19;;;7.66
20490;BMP280;10403;54.092;12.122;2023-11-18T08:11:29;102661.44;;;7.61
20490;BMP280;10403;54.092;12.122;2023-11-18T08:13:57;102644.53;;;7.47
20490;BMP280;10403;54.092;12.122;2023-11-18T08:16:25;102673.84;;;7.70
20490;BMP280;10403;54.092;12.122;2023-11-18T08:18:55;102673.69;;;7.65
20490;BMP280;10403;54.092;12.122;2023-11-18T08:21:23;102633.22;;;7.47
20490;BMP280;10403;54.092;12.122;2023-11-18T08:23:50;102664.03;;;7.61
20490;BMP280;10403;54.092;12.122;2023-11-18T08:26:20;102666.59;;;7.60
20490;BMP280;10403;54.092;12.122;2023-11-18T08:28:47;102670.00;;;7.57
20490;BMP280;10403;54.092;12.122;2023-11-18T08:31:15;102651.41;;;7.45
20490;BMP280;10403;54.092;12.122;2023-11-18T08:33:45;102677.84;;;7.59
20490;BMP280;10403;54.092;12.122;2023-11-18T08:36:13;102652.28;;;7.44
20490;BMP280;10403;54.092;12.122;2023-11-18T08:38:41;102660.34;;;7.55
20490;BMP280;10403;54.092;12.122;2023-11-18T08:41:11;102639.19;;;7.42
20490;BMP280;10403;54.092;12.122;2023-11-18T08:43:41;102671.09;;;7.65
20490;BMP280;10403;54.092;12.122;2023-11-18T08:46:09;102655.13;;;7.53
20490;BMP280;10403;54.092;12.122;2023-11-18T08:48:36;102653.41;;;7.54
20490;BMP280;10403;54.092;12.122;2023-11-18T08:51:07;102630.63;;;7.47
20490;BMP280;10403;54.092;12.122;2023-11-18T08:53:38;102657.91;;;7.59
20490;BMP280;10403;54.092;12.122;2023-11-18T08:56:09;102643.63;;;7.47
20490;BMP280;10403;54.092;12.122;2023-11-18T08:58:44;102654.19;;;7.51
20490;BMP280;10403;54.092;12.122;2023-11-18T09:01:12;102660.34;;;7.55
20490;BMP280;10403;54.092;12.122;2023-11-18T09:03:42;102678.91;;;7.65
20490;BMP280;10403;54.092;12.122;2023-11-18T09:06:20;102654.19;;;7.51
20490;BMP280;10403;54.092;12.122;2023-11-18T09:08:56;102655.97;;;7.52
20490;BMP280;10403;54.092;12.122;2023-11-18T09:11:25;102660.41;;;7.56
20490;BMP280;10403;54.092;12.122;2023-11-18T09:14:00;102662.22;;;7.59
20490;BMP280;10403;54.092;12.122;2023-11-18T09:16:29;102637.59;;;7.48
20490;BMP280;10403;54.092;12.122;2023-11-18T09:18:57;102660.59;;;7.62
20490;BMP280;10403;54.092;12.122;2023-11-18T09:21:30;102657.00;;;7.59
20490;BMP280;10403;54.092;12.122;2023-11-18T09:24:03;102642.13;;;7.53
20490;BMP280;10403;54.092;12.122;2023-11-18T09:26:33;102673.78;;;7.68
20490;BMP280;10403;54.092;12.122;2023-11-18T09:29:03;102656.09;;;7.57
20490;BMP280;10403;54.092;12.122;2023-11-18T09:31:30;102642.00;;;7.50
20490;BMP280;10403;54.092;12.122;2023-11-18T09:34:00;102645.63;;;7.55
20490;BMP280;10403;54.092;12.122;2023-11-18T09:36:28;102653.63;;;7.61
20490;BMP280;10403;54.092;12.122;2023-11-18T09:38:56;102659.84;;;7.66
20490;BMP280;10403;54.092;12.122;2023-11-18T09:41:24;102635.19;;;7.55
20490;BMP280;10403;54.092;12.122;2023-11-18T09:43:55;102629.00;;;7.50
20490;BMP280;10403;54.092;12.122;2023-11-18T09:46:26;102669.53;;;7.70
20490;BMP280;10403;54.092;12.122;2023-11-18T09:51:57;102665.03;;;7.66
20490;BMP280;10403;54.092;12.122;2023-11-18T09:55:02;102668.63;;;7.70
20490;BMP280;10403;54.092;12.122;2023-11-18T09:57:38;102660.72;;;7.67
20490;BMP280;10403;54.092;12.122;2023-11-18T10:00:11;102665.31;;;7.75
20490;BMP280;10403;54.092;12.122;2023-11-18T10:02:54;102652.22;;;7.72
20490;BMP280;10403;54.092;12.122;2023-11-18T10:05:27;102660.03;;;7.74
20490;BMP280;10403;54.092;12.122;2023-11-18T10:07:55;102660.13;;;7.77
20490;BMP280;10403;54.092;12.122;2023-11-18T10:10:24;102667.25;;;7.83
20490;BMP280;10403;54.092;12.122;2023-11-18T10:12:54;102644.56;;;7.78
20490;BMP280;10403;54.092;12.122;2023-11-18T10:15:27;102658.72;;;7.88
20490;BMP280;10403;54.092;12.122;2023-11-18T10:17:54;102655.97;;;7.82
20490;BMP280;10403;54.092;12.122;2023-11-18T10:20:46;102663.78;;;7.84
20490;BMP280;10403;54.092;12.122;2023-11-18T10:23:16;102659.41;;;7.81
20490;BMP280;10403;54.092;12.122;2023-11-18T10:25:54;102661.22;;;7.85
20490;BMP280;10403;54.092;12.122;2023-11-18T10:28:34;102644.72;;;7.85
20490;BMP280;10403;54.092;12.122;2023-11-18T10:31:07;102644.00;;;7.90
20490;BMP280;10403;54.092;12.122;2023-11-18T10:33:41;102653.66;;;7.93
20490;BMP280;10403;54.092;12.122;2023-11-18T10:36:22;102646.66;;;7.92
20490;BMP280;10403;54.092;12.122;2023-11-18T10:38:52;102638.00;;;7.93
20490;BMP280;10403;54.092;12.122;2023-11-18T10:41:24;102643.34;;;7.97
20490;BMP280;10403;54.092;12.122;2023-11-18T10:44:08;102613.44;;;7.83
20490;BMP280;10403;54.092;12.122;2023-11-18T10:46:53;102629.50;;;8.00
20490;BMP280;10403;54.092;12.122;2023-11-18T10:49:21;102619.78;;;7.93
20490;BMP280;10403;54.092;12.122;2023-11-18T10:51:52;102631.28;;;8.01
20490;BMP280;10403;54.092;12.122;2023-11-18T10:54:20;102586.34;;;7.78
20490;BMP280;10403;54.092;12.122;2023-11-18T10:56:52;102622.81;;;8.09
20490;BMP280;10403;54.092;12.122;2023-11-18T10:59:35;102622.75;;;8.08
20490;BMP280;10403;54.092;12.122;2023-11-18T11:02:18;102581.41;;;7.89
20490;BMP280;10403;54.092;12.122;2023-11-18T11:04:51;102594.69;;;7.98
20490;BMP280;10403;54.092;12.122;2023-11-18T11:07:21;102620.19;;;8.09
20490;BMP280;10403;54.092;12.122;2023-11-18T11:09:50;102599.03;;;7.97
20490;BMP280;10403;54.092;12.122;2023-11-18T11:12:25;102597.34;;;7.99
20490;BMP280;10403;54.092;12.122;2023-11-18T11:15:08;102607.13;;;8.08
20490;BMP280;10403;54.092;12.122;2023-11-18T11:17:45;102594.78;;;8.01
20490;BMP280;10403;54.092;12.122;2023-11-18T11:20:21;102572.03;;;7.95
20490;BMP280;10403;54.092;12.122;2023-11-18T11:23:47;102594.19;;;8.11
20490;BMP280;10403;54.092;12.122;2023-11-18T11:29:31;102571.47;;;8.07
20490;BMP280;10403;54.092;12.122;2023-11-18T11:32:18;102578.56;;;8.12
20490;BMP280;10403;54.092;12.122;2023-11-18T11:34:56;102577.03;;;8.21
20490;BMP280;10403;54.092;12.122;2023-11-18T11:37:26;102554.22;;;8.12
20490;BMP280;10403;54.092;12.122;2023-11-18T11:39:55;102569.16;;;8.19
20490;BMP280;10403;54.092;12.122;2023-11-18T11:42:27;102571.13;;;8.28
20490;BMP280;10403;54.092;12.122;2023-11-18T11:44:56;102585.31;;;8.37
20490;BMP280;10403;54.092;12.122;2023-11-18T11:47:31;102584.50;;;8.40
20490;BMP280;10403;54.092;12.122;2023-11-18T11:50:20;102569.44;;;8.30
20490;BMP280;10403;54.092;12.122;2023-11-18T11:53:06;102546.63;;;8.21
20490;BMP280;10403;54.092;12.122;2023-11-18T11:55:47;102556.22;;;8.24
20490;BMP280;10403;54.092;12.122;2023-11-18T11:58:34;102571.34;;;8.35
20490;BMP280;10403;54.092;12.122;2023-11-18T12:03:46;102552.06;;;8.30
20490;BMP280;10403;54.092;12.122;2023-11-18T12:06:19;102544.19;;;8.29
20490;BMP280;10403;54.092;12.122;2023-11-18T12:08:54;102554.00;;;8.37
20490;BMP280;10403;54.092;12.122;2023-11-18T12:11:22;102540.91;;;8.36
20490;BMP280;10403;54.092;12.122;2023-11-18T12:14:07;102532.09;;;8.31
20490;BMP280;10403;54.092;12.122;2023-11-18T12:17:05;102559.56;;;8.52
20490;BMP280;10403;54.092;12.122;2023-11-18T12:19:49;102537.50;;;8.38
20490;BMP280;10403;54.092;12.122;2023-11-18T12:22:19;102547.09;;;8.39
20490;BMP280;10403;54.092;12.122;2023-11-18T12:27:45;102541.81;;;8.36
20490;BMP280;10403;54.092;12.122;2023-11-18T12:35:29;102556.88;;;8.48
20490;BMP280;10403;54.092;12.122;2023-11-18T12:40:54;102538.44;;;8.40
20490;BMP280;10403;54.092;12.122;2023-11-18T12:44:05;102541.88;;;8.39
20490;BMP280;10403;54.092;12.122;2023-11-18T12:49:22;102536.50;;;8.33
20490;BMP280;10403;54.092;12.122;2023-11-18T12:51:55;102500.41;;;8.15
20490;BMP280;10403;54.092;12.122;2023-11-18T12:54:25;102506.69;;;8.24
20490;BMP280;10403;54.092;12.122;2023-11-18T12:57:00;102525.34;;;8.39
20490;BMP280;10403;54.092;12.122;2023-11-18T12:59:28;102520.06;;;8.36
20490;BMP280;10403;54.092;12.122;2023-11-18T13:01:58;102494.41;;;8.18
20490;BMP280;10403;54.092;12.122;2023-11-18T13:04:26;102530.66;;;8.42
20490;BMP280;10403;54.092;12.122;2023-11-18T13:06:56;102536.84;;;8.47
20490;BMP280;10403;54.092;12.122;2023-11-18T13:09:29;102512.28;;;8.37
20490;BMP280;10403;54.092;12.122;2023-11-18T13:12:03;102539.69;;;8.58
20490;BMP280;10403;54.092;12.122;2023-11-18T13:14:38;102513.38;;;8.47
20490;BMP280;10403;54.092;12.122;2023-11-18T13:17:15;102528.47;;;8.60
20490;BMP280;10403;54.092;12.122;2023-11-18T13:19:45;102486.06;;;8.33
20490;BMP280;10403;54.092;12.122;2023-11-18T13:22:15;102510.78;;;8.48
20490;BMP280;10403;54.092;12.122;2023-11-18T13:24:47;102468.41;;;8.23
20490;BMP280;10403;54.092;12.122;2023-11-18T13:27:19;102516.66;;;8.38
20490;BMP280;10403;54.092;12.122;2023-11-18T13:29:48;102504.06;;;8.22
20490;BMP280;10403;54.092;12.122;2023-11-18T13:32:21;102527.91;;;8.37
20490;BMP280;10403;54.092;12.122;2023-11-18T13:34:53;102470.53;;;8.01
20490;BMP280;10403;54.092;12.122;2023-11-18T13:37:22;102489.81;;;8.08
20490;BMP280;10403;54.092;12.122;2023-11-18T13:39:55;102440.34;;;7.75
20490;BMP280;10403;54.092;12.122;2023-11-18T13:42:26;102494.06;;;8.03
20490;BMP280;10403;54.092;12.122;2023-11-18T13:45:13;102494.97;;;8.06
20490;BMP280;10403;54.092;12.122;2023-11-18T13:48:02;102489.69;;;8.02
20490;BMP280;10403;54.092;12.122;2023-11-18T13:50:30;102485.22;;;7.98
20490;BMP280;10403;54.092;12.122;2023-11-18T13:53:00;102482.38;;;7.89
20490;BMP280;10403;54.092;12.122;2023-11-18T13:55:28;102444.53;;;7.68
20490;BMP280;10403;54.092;12.122;2023-11-18T13:57:59;102459.31;;;7.69
20490;BMP280;10403;54.092;12.122;2023-11-18T14:00:27;102441.56;;;7.55
20490;BMP280;10403;54.092;12.122;2023-11-18T14:02:59;102429.16;;;7.43
20490;BMP280;10403;54.092;12.122;2023-11-18T14:05:27;102467.00;;;7.65
20490;BMP280;10403;54.092;12.122;2023-11-18T14:07:57;102467.63;;;7.55
20490;BMP280;10403;54.092;12.122;2023-11-18T14:10:30;102426.97;;;7.27
20490;BMP280;10403;54.092;12.122;2023-11-18T14:13:05;102451.53;;;7.36
20490;BMP280;10403;54.092;12.122;2023-11-18T14:15:33;102459.38;;;7.38
20490;BMP280;10403;54.092;12.122;2023-11-18T14:18:04;102476.84;;;7.42
20490;BMP280;10403;54.092;12.122;2023-11-18T14:20:36;102475.09;;;7.41
20490;BMP280;10403;54.092;12.122;2023-11-18T14:23:03;102441.66;;;7.25
20490;BMP280;10403;54.092;12.122;2023-11-18T14:25:32;102439.94;;;7.25
20490;BMP280;10403;54.092;12.122;2023-11-18T14:28:04;102417.09;;;7.15
20490;BMP280;10403;54.092;12.122;2023-11-18T14:30:31;102449.81;;;7.37
20490;BMP280;10403;54.092;12.122;2023-11-18T14:32:59;102423.38;;;7.22
20490;BMP280;10403;54.092;12.122;2023-11-18T14:35:27;102406.69;;;7.14
20490;BMP280;10403;54.092;12.122;2023-11-18T14:37:56;102396.03;;;7.04
20490;BMP280;10403;54.092;12.122;2023-11-18T14:40:24;102427.59;;;7.18